Time;durP1;ratioP1;P1;durP2;ratioP2;P2;SDS_P1;SDS_P2;PMS_P1;PMS_P2;Temp;Humidity;BMP_temperature;BMP_pressure;BME280_temperature;BME280_humidity;BME280_pressure;Samples;Min_cycle;Max_cycle;Signal;HPM_P1;HPM_P2
2021/03/24 00:00:28;;;;;;;;;4.75;4.50;;;;;;;;3725258;37;20362;-63
2021/03/24 00:02:58;;;;;;;;;7.00;5.25;;;;;;;;3725355;37;18057;-60
2021/03/24 00:05:27;;;;;;;;;6.00;6.00;;;;;;;;3724930;38;20397;-60
2021/03/24 00:07:53;;;;;;;;;4.00;4.00;;;;;;;;3725248;37;20390;-62
2021/03/24 00:10:20;;;;;;;;;7.25;5.25;;;;;;;;3725315;38;20684;-61
2021/03/24 00:12:46;;;;;;;;;5.75;5.00;;;;;;;;3725390;37;18031;-62
2021/03/24 00:15:12;;;;;;;;;7.25;7.00;;;;;;;;3725217;38;20372;-62
2021/03/24 00:17:38;;;;;;;;;6.00;3.50;;;;;;;;3725337;37;18063;-60
2021/03/24 00:20:05;;;;;;;;;6.50;5.00;;;;;;;;3725159;38;20337;-62
2021/03/24 00:22:31;;;;;;;;;7.00;5.50;;;;;;;;3725241;37;18019;-61
2021/03/24 00:24:57;;;;;;;;;4.75;4.00;;;;;;;;3725329;37;20373;-60
2021/03/24 00:27:22;;;;;;;;;5.00;4.75;;;;;;;;3725333;38;20363;-62
2021/03/24 00:29:48;;;;;;;;;4.75;4.00;;;;;;;;3725373;37;18027;-62
2021/03/24 00:32:14;;;;;;;;;7.25;5.00;;;;;;;;3725304;38;18034;-62
2021/03/24 00:34:40;;;;;;;;;3.50;2.00;;;;;;;;3725217;37;18051;-63
2021/03/24 00:37:06;;;;;;;;;8.00;7.00;;;;;;;;3725134;37;18026;-62
2021/03/24 00:39:31;;;;;;;;;4.00;2.00;;;;;;;;3725138;37;18025;-61
2021/03/24 00:41:57;;;;;;;;;7.00;7.00;;;;;;;;3725117;37;18037;-61
2021/03/24 00:44:23;;;;;;;;;1.50;1.50;;;;;;;;3725169;37;18018;-62
2021/03/24 00:46:49;;;;;;;;;5.00;4.25;;;;;;;;3725201;37;20529;-61
2021/03/24 00:49:15;;;;;;;;;5.00;5.00;;;;;;;;3725281;37;18018;-62
2021/03/24 00:51:41;;;;;;;;;5.50;4.25;;;;;;;;3725338;37;18106;-62
2021/03/24 00:54:07;;;;;;;;;6.00;6.00;;;;;;;;3725368;38;18013;-63
2021/03/24 00:56:33;;;;;;;;;2.50;2.00;;;;;;;;3725563;37;20494;-62
2021/03/24 00:58:58;;;;;;;;;2.00;1.00;;;;;;;;3724900;37;20597;-61
2021/03/24 01:01:24;;;;;;;;;6.00;5.00;;;;;;;;3724680;38;17996;-63
2021/03/24 01:03:50;;;;;;;;;3.00;3.00;;;;;;;;3724731;38;17997;-63
2021/03/24 01:06:17;;;;;;;;;4.00;2.00;;;;;;;;3725324;37;17945;-62
2021/03/24 01:08:43;;;;;;;;;3.00;2.00;;;;;;;;3725128;38;17989;-63
2021/03/24 01:11:09;;;;;;;;;4.50;2.50;;;;;;;;3725347;37;20332;-64
2021/03/24 01:13:35;;;;;;;;;4.75;3.00;;;;;;;;3725525;37;17947;-63
2021/03/24 01:16:01;;;;;;;;;5.00;5.00;;;;;;;;3725563;37;17973;-64
2021/03/24 01:18:26;;;;;;;;;5.00;4.00;;;;;;;;3725496;37;17971;-67
2021/03/24 01:20:53;;;;;;;;;2.00;2.00;;;;;;;;3725761;38;17935;-64
2021/03/24 01:23:19;;;;;;;;;7.00;4.75;;;;;;;;3726077;37;20276;-64
2021/03/24 01:25:46;;;;;;;;;2.00;2.00;;;;;;;;3725415;38;17932;-64
2021/03/24 01:28:18;;;;;;;;;6.00;5.00;;;;;;;;3725206;38;17921;-63
2021/03/24 01:30:44;;;;;;;;;6.50;5.00;;;;;;;;3725417;37;20274;-62
2021/03/24 01:33:11;;;;;;;;;7.00;4.00;;;;;;;;3725250;38;20254;-63
2021/03/24 01:35:39;;;;;;;;;2.50;2.00;;;;;;;;3724978;37;20229;-62
2021/03/24 01:38:07;;;;;;;;;7.00;5.00;;;;;;;;3725242;38;20270;-64
2021/03/24 01:40:38;;;;;;;;;7.00;5.00;;;;;;;;3724916;37;20374;-63
2021/03/24 01:43:06;;;;;;;;;5.00;4.25;;;;;;;;3725256;37;20267;-63
2021/03/24 01:45:41;;;;;;;;;5.00;4.00;;;;;;;;3725129;37;20279;-63
2021/03/24 01:48:12;;;;;;;;;3.50;3.50;;;;;;;;3725318;37;20250;-63
2021/03/24 01:50:40;;;;;;;;;4.50;4.00;;;;;;;;3725315;38;20229;-63
2021/03/24 01:53:06;;;;;;;;;4.00;4.00;;;;;;;;3725226;37;20243;-63
2021/03/24 01:55:33;;;;;;;;;3.00;3.00;;;;;;;;3725266;37;20229;-63
2021/03/24 01:57:59;;;;;;;;;0.00;0.00;;;;;;;;3724859;38;20222;-62
2021/03/24 02:00:31;;;;;;;;;4.00;2.00;;;;;;;;3725069;38;20192;-63
2021/03/24 02:02:57;;;;;;;;;1.50;1.50;;;;;;;;3725298;37;17888;-63
2021/03/24 02:05:22;;;;;;;;;3.00;3.00;;;;;;;;3724886;38;20224;-63
2021/03/24 02:08:17;;;;;;;;;1.25;0.25;;;;;;;;3725241;38;17904;-63
2021/03/24 02:10:51;;;;;;;;;4.00;4.00;;;;;;;;3725362;37;17915;-64
2021/03/24 02:13:21;;;;;;;;;4.75;3.00;;;;;;;;3724778;38;20201;-63
2021/03/24 02:15:51;;;;;;;;;3.50;1.75;;;;;;;;3725397;37;20189;-63
2021/03/24 02:18:17;;;;;;;;;7.00;5.00;;;;;;;;3725337;37;20407;-62
2021/03/24 02:21:07;;;;;;;;;4.75;4.25;;;;;;;;3725229;37;20233;-63
2021/03/24 02:23:59;;;;;;;;;2.00;1.50;;;;;;;;3725253;37;20186;-63
2021/03/24 02:26:32;;;;;;;;;4.00;2.00;;;;;;;;3725304;38;20188;-62
2021/03/24 02:29:00;;;;;;;;;4.25;2.00;;;;;;;;3725405;38;20157;-62
2021/03/24 02:31:27;;;;;;;;;2.00;2.00;;;;;;;;3725344;38;20255;-62
2021/03/24 02:33:54;;;;;;;;;4.00;4.00;;;;;;;;3725382;37;20177;-62
2021/03/24 02:36:22;;;;;;;;;5.50;3.50;;;;;;;;3725334;38;20184;-62
2021/03/24 02:38:49;;;;;;;;;1.50;1.50;;;;;;;;3725225;38;20161;-62
2021/03/24 02:41:17;;;;;;;;;2.50;1.75;;;;;;;;3725413;38;20174;-63
2021/03/24 02:43:43;;;;;;;;;4.00;4.00;;;;;;;;3725494;37;20155;-63
2021/03/24 02:46:10;;;;;;;;;9.25;8.50;;;;;;;;3725543;37;20158;-63
2021/03/24 02:48:38;;;;;;;;;17.75;14.25;;;;;;;;3725375;38;20168;-62
2021/03/24 02:51:05;;;;;;;;;42.25;30.75;;;;;;;;3725250;38;20183;-62
2021/03/24 02:53:32;;;;;;;;;21.00;17.75;;;;;;;;3725253;38;20261;-63
2021/03/24 02:55:59;;;;;;;;;5.00;3.00;;;;;;;;3725398;38;20240;-62
2021/03/24 02:58:26;;;;;;;;;4.00;4.00;;;;;;;;3725359;38;20161;-62
2021/03/24 03:00:51;;;;;;;;;1.50;1.50;;;;;;;;3724804;37;20155;-62
2021/03/24 03:03:25;;;;;;;;;1.50;1.50;;;;;;;;3725423;38;20151;-62
2021/03/24 03:05:55;;;;;;;;;4.00;2.50;;;;;;;;3725363;38;20131;-67
2021/03/24 03:08:26;;;;;;;;;4.50;1.75;;;;;;;;3725365;37;20138;-63
2021/03/24 03:11:04;;;;;;;;;5.00;4.00;;;;;;;;3725309;37;20129;-64
2021/03/24 03:13:48;;;;;;;;;2.00;2.00;;;;;;;;3725006;38;20116;-63
2021/03/24 03:16:26;;;;;;;;;1.50;1.50;;;;;;;;3725406;37;20107;-63
2021/03/24 03:18:59;;;;;;;;;3.00;2.00;;;;;;;;3725229;38;20094;-63
2021/03/24 03:21:31;;;;;;;;;3.00;1.25;;;;;;;;3724895;37;20125;-62
2021/03/24 03:24:00;;;;;;;;;4.50;2.00;;;;;;;;3725394;37;20098;-62
2021/03/24 03:26:27;;;;;;;;;1.00;1.00;;;;;;;;3725323;37;20105;-63
2021/03/24 03:28:56;;;;;;;;;4.75;3.50;;;;;;;;3725265;37;20086;-62
2021/03/24 03:31:24;;;;;;;;;4.00;4.00;;;;;;;;3725294;38;20096;-61
2021/03/24 03:33:56;;;;;;;;;5.50;4.75;;;;;;;;3724989;37;20075;-62
2021/03/24 03:36:23;;;;;;;;;4.00;3.00;;;;;;;;3725438;37;20087;-62
2021/03/24 03:38:49;;;;;;;;;2.00;2.00;;;;;;;;3725360;37;20120;-61
2021/03/24 03:41:16;;;;;;;;;4.00;4.00;;;;;;;;3725220;37;20075;-64
2021/03/24 03:43:47;;;;;;;;;4.75;3.00;;;;;;;;3725063;37;20072;-63
2021/03/24 03:46:15;;;;;;;;;5.00;4.00;;;;;;;;3725170;38;20069;-63
2021/03/24 03:48:43;;;;;;;;;1.75;1.00;;;;;;;;3725154;38;20073;-64
2021/03/24 03:51:11;;;;;;;;;5.00;4.00;;;;;;;;3725146;37;20065;-63
2021/03/24 03:53:43;;;;;;;;;1.75;1.25;;;;;;;;3725348;37;20513;-62
2021/03/24 03:56:19;;;;;;;;;1.00;1.00;;;;;;;;3725239;38;20077;-63
2021/03/24 03:58:48;;;;;;;;;3.00;1.75;;;;;;;;3725202;37;20068;-63
2021/03/24 04:01:32;;;;;;;;;0.50;0.50;;;;;;;;3725316;37;20062;-63
2021/03/24 04:04:01;;;;;;;;;4.00;2.00;;;;;;;;3725389;37;20079;-64
2021/03/24 04:06:34;;;;;;;;;3.50;2.00;;;;;;;;3725329;38;20069;-63
2021/03/24 04:09:03;;;;;;;;;1.25;1.00;;;;;;;;3725263;37;20058;-63
2021/03/24 04:11:31;;;;;;;;;1.75;1.75;;;;;;;;3724922;38;20129;-63
2021/03/24 04:14:02;;;;;;;;;2.00;1.00;;;;;;;;3725363;37;20056;-63
2021/03/24 04:16:28;;;;;;;;;2.50;2.00;;;;;;;;3724708;37;20078;-63
2021/03/24 04:19:00;;;;;;;;;5.00;3.50;;;;;;;;3725133;38;20058;-63
2021/03/24 04:21:27;;;;;;;;;2.00;2.00;;;;;;;;3725117;38;20039;-63
2021/03/24 04:23:57;;;;;;;;;2.00;2.00;;;;;;;;3725262;37;20037;-63
2021/03/24 04:26:26;;;;;;;;;4.00;4.00;;;;;;;;3725294;37;20036;-64
2021/03/24 04:28:56;;;;;;;;;3.00;3.00;;;;;;;;3725154;37;20015;-63
2021/03/24 04:31:30;;;;;;;;;2.50;1.25;;;;;;;;3726386;37;20033;-64
2021/03/24 04:33:56;;;;;;;;;4.50;2.00;;;;;;;;3729241;37;20018;-63
2021/03/24 04:36:26;;;;;;;;;5.00;5.00;;;;;;;;3730893;38;20223;-63
2021/03/24 04:38:55;;;;;;;;;6.25;2.50;;;;;;;;3725523;37;20041;-63
2021/03/24 04:41:28;;;;;;;;;5.00;4.00;;;;;;;;3726069;37;20023;-63
2021/03/24 04:43:59;;;;;;;;;2.00;2.00;;;;;;;;3725800;38;20026;-63
2021/03/24 04:46:26;;;;;;;;;2.50;2.50;;;;;;;;3725379;38;20003;-63
2021/03/24 04:49:03;;;;;;;;;4.00;2.00;;;;;;;;3725296;37;20021;-63
2021/03/24 04:51:31;;;;;;;;;4.00;1.50;;;;;;;;3725144;38;20012;-63
2021/03/24 04:54:28;;;;;;;;;5.00;4.00;;;;;;;;3725113;37;20007;-63
2021/03/24 04:56:56;;;;;;;;;5.50;5.50;;;;;;;;3725317;37;20005;-63
2021/03/24 04:59:26;;;;;;;;;6.25;4.00;;;;;;;;3725143;37;19980;-63
2021/03/24 05:02:04;;;;;;;;;4.75;4.50;;;;;;;;3724866;38;19993;-62
2021/03/24 05:04:51;;;;;;;;;5.00;4.00;;;;;;;;3725122;37;19997;-64
2021/03/24 05:07:39;;;;;;;;;3.75;3.00;;;;;;;;3725401;38;19970;-63
2021/03/24 05:10:31;;;;;;;;;5.00;4.00;;;;;;;;3725170;38;19977;-64
2021/03/24 05:13:13;;;;;;;;;4.50;4.50;;;;;;;;3725024;38;19958;-64
2021/03/24 05:15:43;;;;;;;;;5.75;5.00;;;;;;;;3725267;37;19986;-62
2021/03/24 05:18:10;;;;;;;;;5.25;4.75;;;;;;;;3724955;38;19955;-62
2021/03/24 05:20:40;;;;;;;;;2.00;2.00;;;;;;;;3725280;38;19973;-63
2021/03/24 05:23:13;;;;;;;;;8.50;5.00;;;;;;;;3725253;37;19950;-64
2021/03/24 05:25:42;;;;;;;;;5.25;4.25;;;;;;;;3725408;37;20185;-63
2021/03/24 05:28:28;;;;;;;;;8.25;7.50;;;;;;;;3724984;38;19963;-63
2021/03/24 05:31:06;;;;;;;;;9.25;8.50;;;;;;;;3725343;38;19966;-64
2021/03/24 05:33:35;;;;;;;;;8.25;7.75;;;;;;;;3725201;38;19946;-60
2021/03/24 05:36:09;;;;;;;;;8.00;5.00;;;;;;;;3725373;38;19990;-63
2021/03/24 05:38:36;;;;;;;;;11.00;8.00;;;;;;;;3725361;38;19960;-63
2021/03/24 05:41:22;;;;;;;;;8.50;7.25;;;;;;;;3725335;38;19932;-64
2021/03/24 05:44:19;;;;;;;;;8.00;6.25;;;;;;;;3726340;38;19957;-66
2021/03/24 05:47:11;;;;;;;;;6.25;4.00;;;;;;;;3726015;38;19936;-63
2021/03/24 05:50:02;;;;;;;;;8.00;6.25;;;;;;;;3725147;37;20017;-63
2021/03/24 05:52:45;;;;;;;;;2.00;2.00;;;;;;;;3725460;38;19927;-63
2021/03/24 05:55:34;;;;;;;;;11.25;10.00;;;;;;;;3725619;38;19909;-64
2021/03/24 05:58:06;;;;;;;;;9.00;6.50;;;;;;;;3725343;37;19914;-65
2021/03/24 06:00:37;;;;;;;;;7.25;6.50;;;;;;;;3725482;37;19931;-63
2021/03/24 06:03:12;;;;;;;;;8.00;8.00;;;;;;;;3725882;38;19914;-64
2021/03/24 06:06:01;;;;;;;;;2.00;1.00;;;;;;;;3725613;37;19901;-63
2021/03/24 06:08:51;;;;;;;;;8.25;8.00;;;;;;;;3725437;38;19891;-64
2021/03/24 06:11:43;;;;;;;;;6.25;5.50;;;;;;;;3725802;37;19910;-64
2021/03/24 06:14:43;;;;;;;;;6.50;5.50;;;;;;;;3725325;37;19894;-64
2021/03/24 06:17:26;;;;;;;;;10.50;6.50;;;;;;;;3725311;37;19892;-65
2021/03/24 06:20:12;;;;;;;;;4.50;4.00;;;;;;;;3725550;37;19896;-63
2021/03/24 06:23:04;;;;;;;;;7.25;7.25;;;;;;;;3725646;38;19926;-64
2021/03/24 06:25:40;;;;;;;;;6.75;4.00;;;;;;;;3726241;38;19865;-62
2021/03/24 06:28:14;;;;;;;;;7.25;6.25;;;;;;;;3725244;38;19873;-62
2021/03/24 06:30:58;;;;;;;;;9.25;9.00;;;;;;;;3725274;37;19912;-62
2021/03/24 06:33:50;;;;;;;;;5.00;2.00;;;;;;;;3725446;37;19930;-62
2021/03/24 06:36:35;;;;;;;;;47.00;38.25;;;;;;;;3725382;38;20849;-63
2021/03/24 06:39:21;;;;;;;;;15.25;9.75;;;;;;;;3724910;38;20950;-62
2021/03/24 06:42:04;;;;;;;;;12.50;10.50;;;;;;;;3725402;38;20867;-62
2021/03/24 06:44:59;;;;;;;;;9.00;6.50;;;;;;;;3725479;37;19871;-63
2021/03/24 06:47:47;;;;;;;;;10.50;8.50;;;;;;;;3725502;37;19850;-62
2021/03/24 06:50:33;;;;;;;;;11.00;8.25;;;;;;;;3725334;38;20870;-63
2021/03/24 06:53:18;;;;;;;;;9.00;9.00;;;;;;;;3725280;38;20833;-63
2021/03/24 06:56:16;;;;;;;;;8.00;7.00;;;;;;;;3725271;38;20852;-64
2021/03/24 06:59:00;;;;;;;;;9.00;8.50;;;;;;;;3725189;37;20856;-65
2021/03/24 07:01:43;;;;;;;;;9.00;6.25;;;;;;;;3725257;38;20913;-63
2021/03/24 07:04:27;;;;;;;;;9.50;8.25;;;;;;;;3725424;37;20839;-63
2021/03/24 07:07:05;;;;;;;;;10.75;8.25;;;;;;;;3725256;37;20886;-64
2021/03/24 07:09:49;;;;;;;;;15.00;10.25;;;;;;;;3725585;37;20819;-64
2021/03/24 07:12:40;;;;;;;;;12.50;10.00;;;;;;;;3725431;38;20907;-63
2021/03/24 07:15:38;;;;;;;;;9.75;9.00;;;;;;;;3725641;38;20854;-61
2021/03/24 07:18:22;;;;;;;;;11.50;10.50;;;;;;;;3725375;37;20819;-62
2021/03/24 07:20:59;;;;;;;;;13.75;9.75;;;;;;;;3725143;38;20886;-62
2021/03/24 07:23:48;;;;;;;;;10.50;9.00;;;;;;;;3725167;37;20809;-62
2021/03/24 07:26:29;;;;;;;;;7.50;5.25;;;;;;;;3725134;38;20823;-64
2021/03/24 07:29:06;;;;;;;;;9.00;6.00;;;;;;;;3725319;37;20776;-62
2021/03/24 07:31:49;;;;;;;;;5.00;5.00;;;;;;;;3725413;37;20781;-64
2021/03/24 07:34:35;;;;;;;;;9.50;9.50;;;;;;;;3725206;38;20776;-62
2021/03/24 07:37:18;;;;;;;;;14.00;11.00;;;;;;;;3725604;37;20823;-61
2021/03/24 07:40:13;;;;;;;;;14.25;9.75;;;;;;;;3724993;38;20800;-63
2021/03/24 07:42:54;;;;;;;;;9.50;6.00;;;;;;;;3725070;37;20793;-66
2021/03/24 07:45:28;;;;;;;;;9.75;8.75;;;;;;;;3725228;37;20787;-62
2021/03/24 07:48:20;;;;;;;;;11.00;10.00;;;;;;;;3725277;37;20797;-63
2021/03/24 07:51:05;;;;;;;;;10.50;9.00;;;;;;;;3724999;38;20803;-61
2021/03/24 07:53:44;;;;;;;;;11.00;9.00;;;;;;;;3725094;37;20772;-63
2021/03/24 07:56:34;;;;;;;;;9.25;8.00;;;;;;;;3725270;38;20753;-61
2021/03/24 07:59:16;;;;;;;;;14.75;12.50;;;;;;;;3725029;37;20749;-64
2021/03/24 08:02:14;;;;;;;;;8.00;6.75;;;;;;;;3725453;38;20766;-64
2021/03/24 08:05:08;;;;;;;;;8.00;6.75;;;;;;;;3725891;37;20768;-64
2021/03/24 08:07:42;;;;;;;;;10.75;9.75;;;;;;;;3725909;38;20741;-65
2021/03/24 08:10:21;;;;;;;;;9.50;7.75;;;;;;;;3725359;37;20784;-69
2021/03/24 08:13:13;;;;;;;;;7.50;7.00;;;;;;;;3726806;37;20778;-64
2021/03/24 08:15:54;;;;;;;;;10.25;9.25;;;;;;;;3726473;38;20734;-63
2021/03/24 08:18:43;;;;;;;;;13.50;11.50;;;;;;;;3726447;38;20747;-65
2021/03/24 08:21:28;;;;;;;;;5.00;2.00;;;;;;;;3725470;37;20743;-64
2021/03/24 08:24:11;;;;;;;;;5.50;5.50;;;;;;;;3725556;37;20709;-63
2021/03/24 08:26:55;;;;;;;;;9.25;9.25;;;;;;;;3725910;37;20700;-63
2021/03/24 08:29:47;;;;;;;;;13.50;10.00;;;;;;;;3725338;37;20746;-63
2021/03/24 08:32:31;;;;;;;;;10.25;10.00;;;;;;;;3725423;38;20759;-65
2021/03/24 08:35:15;;;;;;;;;8.50;7.75;;;;;;;;3725315;37;20778;-62
2021/03/24 08:37:58;;;;;;;;;12.00;10.00;;;;;;;;3725230;37;20736;-63
2021/03/24 08:40:42;;;;;;;;;6.00;5.75;;;;;;;;3725285;38;20714;-63
2021/03/24 08:43:40;;;;;;;;;13.00;12.25;;;;;;;;3725143;37;20755;-64
2021/03/24 08:46:37;;;;;;;;;6.50;5.00;;;;;;;;3725480;37;20745;-63
2021/03/24 08:49:11;;;;;;;;;13.25;12.00;;;;;;;;3725281;37;20684;-63
2021/03/24 08:51:57;;;;;;;;;10.00;10.00;;;;;;;;3725127;37;20689;-63
2021/03/24 08:54:46;;;;;;;;;17.50;17.00;;;;;;;;3725380;38;20708;-65
2021/03/24 08:57:30;;;;;;;;;9.25;8.75;;;;;;;;3725261;37;20715;-65
2021/03/24 09:00:19;;;;;;;;;12.50;8.50;;;;;;;;3725225;38;20704;-63
2021/03/24 09:02:54;;;;;;;;;13.75;10.50;;;;;;;;3725143;37;20719;-64
2021/03/24 09:05:36;;;;;;;;;14.50;13.00;;;;;;;;3725360;37;20720;-65
2021/03/24 09:08:26;;;;;;;;;10.00;7.75;;;;;;;;3725096;37;20661;-64
2021/03/24 09:11:19;;;;;;;;;13.00;11.25;;;;;;;;3725100;38;20765;-65
2021/03/24 09:13:53;;;;;;;;;16.00;12.00;;;;;;;;3725064;38;20719;-63
2021/03/24 09:16:41;;;;;;;;;17.25;15.75;;;;;;;;3725308;37;20712;-65
2021/03/24 09:19:31;;;;;;;;;21.50;13.50;;;;;;;;3725188;38;20677;-65
2021/03/24 09:22:14;;;;;;;;;16.75;14.75;;;;;;;;3724962;37;20751;-64
2021/03/24 09:24:58;;;;;;;;;13.75;10.00;;;;;;;;3725171;38;20695;-64
2021/03/24 09:27:55;;;;;;;;;9.00;6.50;;;;;;;;3725408;37;20707;-64
2021/03/24 09:30:41;;;;;;;;;17.75;16.50;;;;;;;;3725434;38;20632;-65
2021/03/24 09:33:15;;;;;;;;;11.75;9.00;;;;;;;;3725476;38;20683;-65
2021/03/24 09:36:15;;;;;;;;;10.50;8.00;;;;;;;;3725274;37;20677;-65
2021/03/24 09:38:42;;;;;;;;;9.75;7.25;;;;;;;;3725260;37;20659;-64
2021/03/24 09:41:37;;;;;;;;;13.00;13.00;;;;;;;;3725241;37;20657;-65
2021/03/24 09:44:09;;;;;;;;;10.25;9.00;;;;;;;;3725296;38;20658;-65
2021/03/24 09:46:46;;;;;;;;;6.75;6.75;;;;;;;;3725602;37;20637;-65
2021/03/24 09:49:35;;;;;;;;;13.00;9.50;;;;;;;;3725111;38;20611;-66
2021/03/24 09:52:25;;;;;;;;;16.25;13.00;;;;;;;;3725283;38;20607;-66
2021/03/24 09:55:06;;;;;;;;;12.50;11.25;;;;;;;;3725336;37;20640;-67
2021/03/24 09:58:04;;;;;;;;;5.25;2.25;;;;;;;;3725565;37;20626;-65
2021/03/24 10:00:31;;;;;;;;;13.00;10.00;;;;;;;;3725243;38;20603;-65
2021/03/24 10:03:26;;;;;;;;;10.00;7.25;;;;;;;;3727158;37;20798;-64
2021/03/24 10:05:56;;;;;;;;;9.25;8.25;;;;;;;;3730046;37;20584;-66
2021/03/24 10:08:50;;;;;;;;;10.00;6.00;;;;;;;;3726034;37;20609;-63
2021/03/24 10:11:25;;;;;;;;;12.50;10.25;;;;;;;;3727256;37;20594;-66
2021/03/24 10:13:56;;;;;;;;;9.25;8.75;;;;;;;;3730136;37;20600;-65
2021/03/24 10:16:30;;;;;;;;;13.00;13.00;;;;;;;;3731147;37;20598;-64
2021/03/24 10:19:07;;;;;;;;;14.25;13.25;;;;;;;;3725611;38;20593;-64
2021/03/24 10:21:41;;;;;;;;;15.50;14.00;;;;;;;;3725737;38;20594;-65
2021/03/24 10:24:11;;;;;;;;;14.00;14.00;;;;;;;;3725884;37;20602;-63
2021/03/24 10:26:57;;;;;;;;;13.25;10.75;;;;;;;;3725804;37;20614;-64
2021/03/24 10:29:28;;;;;;;;;18.00;14.50;;;;;;;;3725816;38;20597;-64
2021/03/24 10:32:03;;;;;;;;;14.00;11.25;;;;;;;;3725839;38;20588;-63
2021/03/24 10:34:35;;;;;;;;;13.75;13.00;;;;;;;;3725705;38;20586;-66
2021/03/24 10:37:18;;;;;;;;;13.25;10.00;;;;;;;;3725601;38;20598;-64
2021/03/24 10:40:16;;;;;;;;;16.50;13.75;;;;;;;;3726032;37;20587;-63
2021/03/24 10:42:50;;;;;;;;;18.50;15.75;;;;;;;;3726074;38;20567;-63
2021/03/24 10:45:28;;;;;;;;;26.00;20.25;;;;;;;;3725770;38;20571;-65
2021/03/24 10:47:57;;;;;;;;;20.00;16.50;;;;;;;;3725684;37;20567;-64
2021/03/24 10:50:29;;;;;;;;;15.25;11.00;;;;;;;;3725705;38;20561;-66
2021/03/24 10:53:04;;;;;;;;;14.50;12.50;;;;;;;;3725558;38;20561;-65
2021/03/24 10:55:31;;;;;;;;;18.25;15.50;;;;;;;;3726099;38;20546;-65
2021/03/24 10:58:16;;;;;;;;;16.00;13.25;;;;;;;;3725731;37;20573;-64
2021/03/24 11:00:46;;;;;;;;;19.25;15.00;;;;;;;;3725469;37;20577;-66
2021/03/24 11:03:26;;;;;;;;;15.00;13.50;;;;;;;;3725674;38;20562;-67
2021/03/24 11:06:05;;;;;;;;;12.25;11.25;;;;;;;;3726106;38;20532;-64
2021/03/24 11:08:43;;;;;;;;;18.50;14.00;;;;;;;;3725456;37;20540;-64
2021/03/24 11:11:17;;;;;;;;;9.00;6.50;;;;;;;;3725467;38;20578;-64
2021/03/24 11:14:09;;;;;;;;;6.75;6.75;;;;;;;;3725550;38;20502;-64
2021/03/24 11:16:38;;;;;;;;;17.00;15.25;;;;;;;;3725657;38;20550;-65
2021/03/24 11:19:14;;;;;;;;;17.50;16.50;;;;;;;;3726016;38;20550;-65
2021/03/24 11:21:46;;;;;;;;;19.00;16.75;;;;;;;;3726050;38;20534;-65
2021/03/24 11:24:23;;;;;;;;;14.25;12.25;;;;;;;;3725836;38;20523;-64
2021/03/24 11:27:21;;;;;;;;;13.00;10.25;;;;;;;;3726214;37;20507;-64
2021/03/24 11:29:51;;;;;;;;;14.50;13.75;;;;;;;;3725656;37;20491;-65
2021/03/24 11:32:21;;;;;;;;;11.75;9.75;;;;;;;;3726498;38;20530;-65
2021/03/24 11:34:57;;;;;;;;;13.00;12.50;;;;;;;;3729048;37;20511;-67
2021/03/24 11:37:45;;;;;;;;;12.75;12.00;;;;;;;;3726936;37;20520;-66
2021/03/24 11:40:20;;;;;;;;;19.00;17.50;;;;;;;;3725702;37;20503;-65
2021/03/24 11:43:00;;;;;;;;;19.25;14.00;;;;;;;;3726916;38;20527;-65
2021/03/24 11:45:28;;;;;;;;;16.25;14.25;;;;;;;;3726990;38;20480;-64
2021/03/24 11:48:07;;;;;;;;;17.75;15.00;;;;;;;;3726060;38;20492;-67
2021/03/24 11:50:50;;;;;;;;;15.00;13.75;;;;;;;;3725700;37;20485;-64
2021/03/24 11:53:39;;;;;;;;;16.50;14.50;;;;;;;;3726628;38;20493;-65
2021/03/24 11:56:23;;;;;;;;;18.00;13.75;;;;;;;;3726644;38;20464;-63
2021/03/24 11:59:07;;;;;;;;;10.50;9.50;;;;;;;;3725700;38;20514;-66
2021/03/24 12:01:53;;;;;;;;;23.50;19.00;;;;;;;;3726319;38;20486;-64
2021/03/24 12:04:44;;;;;;;;;15.00;13.50;;;;;;;;3726352;38;20491;-65
2021/03/24 12:07:36;;;;;;;;;15.25;15.00;;;;;;;;3725536;37;20470;-63
2021/03/24 12:10:30;;;;;;;;;22.50;19.50;;;;;;;;3725490;37;20483;-65
2021/03/24 12:13:10;;;;;;;;;18.75;16.75;;;;;;;;3725652;37;20448;-63
2021/03/24 12:15:36;;;;;;;;;17.25;15.25;;;;;;;;3725431;38;20485;-63
2021/03/24 12:18:04;;;;;;;;;20.25;14.50;;;;;;;;3725504;38;20444;-64
2021/03/24 12:20:30;;;;;;;;;19.25;18.25;;;;;;;;3725378;38;20437;-64
2021/03/24 12:22:57;;;;;;;;;19.50;15.25;;;;;;;;3725484;37;20453;-64
2021/03/24 12:25:27;;;;;;;;;19.00;17.50;;;;;;;;3725638;37;18074;-64
2021/03/24 12:27:57;;;;;;;;;17.00;15.25;;;;;;;;3725162;37;20431;-66
2021/03/24 12:30:26;;;;;;;;;17.50;12.75;;;;;;;;3725335;37;20441;-63
2021/03/24 12:33:01;;;;;;;;;19.00;16.75;;;;;;;;3725365;38;20763;-65
2021/03/24 12:35:27;;;;;;;;;18.25;18.00;;;;;;;;3725460;38;20448;-66
2021/03/24 12:37:59;;;;;;;;;18.50;16.25;;;;;;;;3725230;37;20440;-63
2021/03/24 12:40:25;;;;;;;;;22.75;20.50;;;;;;;;3725389;38;20404;-65
2021/03/24 12:42:52;;;;;;;;;15.50;14.75;;;;;;;;3725393;37;20444;-65
2021/03/24 12:45:37;;;;;;;;;18.00;16.50;;;;;;;;3725411;37;18065;-63
2021/03/24 12:48:12;;;;;;;;;22.50;19.00;;;;;;;;3725291;38;20409;-64
2021/03/24 12:51:00;;;;;;;;;23.75;21.25;;;;;;;;3725344;38;20401;-64
2021/03/24 12:53:45;;;;;;;;;23.25;20.75;;;;;;;;3725337;38;20409;-65
2021/03/24 12:56:52;;;;;;;;;22.00;19.00;;;;;;;;3725365;37;20828;-64
2021/03/24 12:59:50;;;;;;;;;33.75;27.50;;;;;;;;3725220;37;20396;-63
2021/03/24 13:02:41;;;;;;;;;28.75;24.00;;;;;;;;3725513;37;20505;-64
2021/03/24 13:05:17;;;;;;;;;26.25;24.25;;;;;;;;3725552;38;20401;-63
2021/03/24 13:08:05;;;;;;;;;31.25;25.50;;;;;;;;3725397;37;20408;-63
2021/03/24 13:10:50;;;;;;;;;27.25;21.75;;;;;;;;3725419;37;20377;-63
2021/03/24 13:13:30;;;;;;;;;8.00;5.00;;;;;;;;3725284;37;20487;-62
2021/03/24 13:16:00;;;;;;;;;17.75;14.50;;;;;;;;3725237;37;20338;-64
2021/03/24 13:18:32;;;;;;;;;20.00;16.50;;;;;;;;3724760;38;20390;-62
2021/03/24 13:21:23;;;;;;;;;16.75;15.50;;;;;;;;3725355;37;20389;-64
2021/03/24 13:24:24;;;;;;;;;19.00;17.75;;;;;;;;3725395;38;20463;-65
2021/03/24 13:26:54;;;;;;;;;18.25;16.25;;;;;;;;3725229;38;20392;-65
2021/03/24 13:29:34;;;;;;;;;17.25;16.00;;;;;;;;3725728;37;20473;-63
2021/03/24 13:32:20;;;;;;;;;23.25;18.00;;;;;;;;3726207;37;20352;-64
2021/03/24 13:34:52;;;;;;;;;22.75;18.50;;;;;;;;3725949;37;20368;-64
2021/03/24 13:37:20;;;;;;;;;11.75;11.50;;;;;;;;3726015;37;20353;-67
2021/03/24 13:39:50;;;;;;;;;21.75;17.75;;;;;;;;3727443;38;20330;-65
2021/03/24 13:42:32;;;;;;;;;17.50;16.75;;;;;;;;3726081;37;20354;-64
2021/03/24 13:45:20;;;;;;;;;11.50;10.75;;;;;;;;3725738;38;20320;-65
2021/03/24 13:48:14;;;;;;;;;17.50;14.75;;;;;;;;3725510;38;20291;-65
2021/03/24 13:50:43;;;;;;;;;26.00;18.00;;;;;;;;3725022;38;20323;-66
2021/03/24 13:53:29;;;;;;;;;18.50;14.50;;;;;;;;3725134;38;20313;-63
2021/03/24 13:56:16;;;;;;;;;15.25;13.75;;;;;;;;3725333;37;20325;-64
2021/03/24 13:58:57;;;;;;;;;19.00;17.50;;;;;;;;3725373;38;20299;-63
2021/03/24 14:01:44;;;;;;;;;17.25;13.50;;;;;;;;3725050;37;20316;-64
2021/03/24 14:04:29;;;;;;;;;22.25;13.50;;;;;;;;3724988;38;20298;-64
2021/03/24 14:07:18;;;;;;;;;17.25;16.50;;;;;;;;3725232;37;20288;-63
2021/03/24 14:09:46;;;;;;;;;22.00;18.00;;;;;;;;3725416;38;20304;-63
2021/03/24 14:12:30;;;;;;;;;19.00;16.75;;;;;;;;3725261;38;20313;-63
2021/03/24 14:15:16;;;;;;;;;20.25;15.00;;;;;;;;3724942;37;20334;-64
2021/03/24 14:18:16;;;;;;;;;22.50;17.00;;;;;;;;3724891;38;20282;-63
2021/03/24 14:21:11;;;;;;;;;18.50;16.00;;;;;;;;3725158;37;20381;-63
2021/03/24 14:23:51;;;;;;;;;21.25;20.25;;;;;;;;3725396;38;20299;-64
2021/03/24 14:26:26;;;;;;;;;23.25;19.75;;;;;;;;3725232;38;20362;-64
2021/03/24 14:29:06;;;;;;;;;22.00;17.75;;;;;;;;3725341;38;20298;-63
2021/03/24 14:31:40;;;;;;;;;15.00;13.25;;;;;;;;3725693;37;20265;-64
2021/03/24 14:34:26;;;;;;;;;27.00;23.00;;;;;;;;3725361;38;20284;-62
2021/03/24 14:36:53;;;;;;;;;24.00;19.00;;;;;;;;3725270;37;20295;-64
2021/03/24 14:39:31;;;;;;;;;18.75;15.50;;;;;;;;3725529;37;20290;-63
2021/03/24 14:42:13;;;;;;;;;20.75;18.75;;;;;;;;3725462;38;20300;-64
2021/03/24 14:44:57;;;;;;;;;19.50;17.50;;;;;;;;3724971;37;20282;-65
2021/03/24 14:47:52;;;;;;;;;19.00;16.25;;;;;;;;3725286;38;20294;-64
2021/03/24 14:50:46;;;;;;;;;26.25;21.50;;;;;;;;3725503;37;20261;-63
2021/03/24 14:53:42;;;;;;;;;15.25;15.25;;;;;;;;3725511;37;20279;-63
2021/03/24 14:56:26;;;;;;;;;21.75;18.75;;;;;;;;3725407;38;20257;-64
2021/03/24 14:59:23;;;;;;;;;21.75;19.00;;;;;;;;3726935;37;20283;-63
2021/03/24 15:01:52;;;;;;;;;18.50;17.00;;;;;;;;3725443;38;20237;-67
2021/03/24 15:04:43;;;;;;;;;19.50;15.00;;;;;;;;3725962;37;20243;-62
2021/03/24 15:07:19;;;;;;;;;36.75;34.75;;;;;;;;3726559;38;20250;-63
2021/03/24 15:09:46;;;;;;;;;35.50;29.50;;;;;;;;3725486;38;20366;-63
2021/03/24 15:12:26;;;;;;;;;19.25;14.50;;;;;;;;3725200;37;20694;-64
2021/03/24 15:15:12;;;;;;;;;28.50;24.50;;;;;;;;3725283;38;20240;-64
2021/03/24 15:17:57;;;;;;;;;26.75;22.75;;;;;;;;3725286;38;20256;-64
2021/03/24 15:20:40;;;;;;;;;27.25;24.00;;;;;;;;3725442;38;20215;-63
2021/03/24 15:23:36;;;;;;;;;28.00;22.50;;;;;;;;3725298;37;20213;-64
2021/03/24 15:26:07;;;;;;;;;25.75;21.75;;;;;;;;3725385;38;20200;-64
2021/03/24 15:28:51;;;;;;;;;18.25;15.00;;;;;;;;3725241;37;20201;-64
2021/03/24 15:31:25;;;;;;;;;25.75;23.75;;;;;;;;3725405;37;20225;-65